createdAt,value
2018-09-03T00:02:00.000Z,98899
2018-09-03T00:07:00.000Z,98902
2018-09-03T00:12:00.000Z,98908
2018-09-03T00:17:00.000Z,98898
2018-09-03T00:22:00.000Z,98896
2018-09-03T00:27:00.000Z,98887
2018-09-03T00:32:00.000Z,98890
2018-09-03T00:37:00.000Z,98892
2018-09-03T00:42:00.000Z,98886
2018-09-03T00:47:00.000Z,98889
2018-09-03T00:52:00.000Z,98887
2018-09-03T00:57:00.000Z,98887
2018-09-03T01:02:00.000Z,98885
2018-09-03T01:07:00.000Z,98891
2018-09-03T01:12:00.000Z,98897
2018-09-03T01:17:00.000Z,98895
2018-09-03T01:22:00.000Z,98885
2018-09-03T01:27:00.000Z,98889
2018-09-03T01:32:00.000Z,98876
2018-09-03T01:37:00.000Z,98855
2018-09-03T01:42:00.000Z,98829
2018-09-03T01:47:00.000Z,98813
2018-09-03T01:52:00.000Z,98797
2018-09-03T01:57:00.000Z,98797
2018-09-03T02:02:00.000Z,98785
2018-09-03T02:07:00.000Z,98794
2018-09-03T02:12:00.000Z,98800
2018-09-03T02:17:00.000Z,98783
2018-09-03T02:22:00.000Z,98773
2018-09-03T02:27:00.000Z,98769
2018-09-03T02:32:00.000Z,98771
2018-09-03T02:37:00.000Z,98765
2018-09-03T02:42:00.000Z,98753
2018-09-03T02:47:00.000Z,98735
2018-09-03T02:52:00.000Z,98726
2018-09-03T02:57:00.000Z,98731
2018-09-03T03:02:00.000Z,98738
2018-09-03T03:07:00.000Z,98740
2018-09-03T03:12:00.000Z,98755
2018-09-03T03:17:00.000Z,98781
2018-09-03T03:22:00.000Z,98791
2018-09-03T03:27:00.000Z,98782
2018-09-03T03:33:00.000Z,98794
2018-09-03T03:38:00.000Z,98775
2018-09-03T03:43:00.000Z,98776
2018-09-03T03:48:00.000Z,98772
2018-09-03T03:53:00.000Z,98774
2018-09-03T03:58:00.000Z,98770
2018-09-03T04:03:00.000Z,98767
2018-09-03T04:08:00.000Z,98773
2018-09-03T04:13:00.000Z,98768
2018-09-03T04:18:00.000Z,98770
2018-09-03T04:23:00.000Z,98777
2018-09-03T04:28:00.000Z,98781
2018-09-03T04:33:00.000Z,98769
2018-09-03T04:38:00.000Z,98766
2018-09-03T04:43:00.000Z,98779
2018-09-03T04:48:00.000Z,98787
2018-09-03T04:53:00.000Z,98788
2018-09-03T04:58:00.000Z,98783
2018-09-03T05:03:00.000Z,98778
2018-09-03T05:08:00.000Z,98776
2018-09-03T05:13:00.000Z,98779
2018-09-03T05:18:00.000Z,98781
2018-09-03T05:23:00.000Z,98778
2018-09-03T05:28:00.000Z,98789
2018-09-03T05:33:00.000Z,98785
2018-09-03T05:38:00.000Z,98774
2018-09-03T05:43:00.000Z,98785
2018-09-03T05:48:00.000Z,98778
2018-09-03T05:53:00.000Z,98765
2018-09-03T05:58:00.000Z,98763
2018-09-03T06:03:00.000Z,98759
2018-09-03T06:08:00.000Z,98745
2018-09-03T06:13:00.000Z,98748
2018-09-03T06:18:00.000Z,98744
2018-09-03T06:23:00.000Z,98733
2018-09-03T06:28:00.000Z,98724
2018-09-03T06:33:00.000Z,98735
2018-09-03T06:38:00.000Z,98738
2018-09-03T06:43:00.000Z,98743
2018-09-03T06:48:00.000Z,98740
2018-09-03T06:53:00.000Z,98734
2018-09-03T06:58:00.000Z,98743
2018-09-03T07:03:00.000Z,98741
2018-09-03T07:08:00.000Z,98727
2018-09-03T07:13:00.000Z,98735
2018-09-03T07:18:00.000Z,98749
2018-09-03T07:23:00.000Z,98739
2018-09-03T07:28:00.000Z,98729
2018-09-03T07:33:00.000Z,98736
2018-09-03T07:38:00.000Z,98738
2018-09-03T07:43:00.000Z,98737
2018-09-03T07:48:00.000Z,98743
2018-09-03T07:53:00.000Z,98732
2018-09-03T07:58:00.000Z,98736
2018-09-03T08:03:00.000Z,98733
2018-09-03T08:08:00.000Z,98731
2018-09-03T08:13:00.000Z,98731
2018-09-03T08:18:00.000Z,98728
2018-09-03T08:23:00.000Z,98734
2018-09-03T08:28:00.000Z,98725
2018-09-03T08:33:00.000Z,98725
2018-09-03T08:38:00.000Z,98736
2018-09-03T08:43:00.000Z,98732
2018-09-03T08:48:00.000Z,98730
2018-09-03T08:53:00.000Z,98745
2018-09-03T08:58:00.000Z,98756
2018-09-03T09:03:00.000Z,98751
2018-09-03T09:08:00.000Z,98745
2018-09-03T09:13:00.000Z,98745
2018-09-03T09:18:00.000Z,98736
2018-09-03T09:23:00.000Z,98748
2018-09-03T09:29:00.000Z,98727
2018-09-03T09:34:00.000Z,98736
2018-09-03T09:39:00.000Z,98739
2018-09-03T09:44:00.000Z,98726
2018-09-03T09:49:00.000Z,98727
2018-09-03T09:54:00.000Z,98724
2018-09-03T09:59:00.000Z,98723
2018-09-03T10:04:00.000Z,98718
2018-09-03T10:09:00.000Z,98712
2018-09-03T10:14:00.000Z,98710
2018-09-03T10:19:00.000Z,98712
2018-09-03T10:24:00.000Z,98708
2018-09-03T10:29:00.000Z,98709
2018-09-03T10:34:00.000Z,98707
2018-09-03T10:39:00.000Z,98701
2018-09-03T10:44:00.000Z,98686
2018-09-03T10:49:00.000Z,98684
2018-09-03T10:54:00.000Z,98675
2018-09-03T10:59:00.000Z,98667
2018-09-03T11:04:00.000Z,98660
2018-09-03T11:09:00.000Z,98663
2018-09-03T11:14:00.000Z,98667
2018-09-03T11:19:00.000Z,98663
2018-09-03T11:24:00.000Z,98664
2018-09-03T11:29:00.000Z,98648
2018-09-03T11:34:00.000Z,98647
2018-09-03T11:39:00.000Z,98649
2018-09-03T11:44:00.000Z,98636
2018-09-03T11:49:00.000Z,98636
2018-09-03T11:54:00.000Z,98637
2018-09-03T11:59:00.000Z,98638
2018-09-03T12:04:00.000Z,98634
2018-09-03T12:09:00.000Z,98628
2018-09-03T12:14:00.000Z,98636
2018-09-03T12:19:00.000Z,98632
2018-09-03T12:24:00.000Z,98628
2018-09-03T12:29:00.000Z,98617
2018-09-03T12:34:00.000Z,98590
2018-09-03T12:39:00.000Z,98586
2018-09-03T12:44:00.000Z,98589
2018-09-03T12:49:00.000Z,98585
2018-09-03T12:54:00.000Z,98587
2018-09-03T12:59:00.000Z,98593
2018-09-03T13:04:00.000Z,98589
2018-09-03T13:09:00.000Z,98579
2018-09-03T13:14:00.000Z,98580
2018-09-03T13:19:00.000Z,98578
2018-09-03T13:24:00.000Z,98573
2018-09-03T13:29:00.000Z,98570
2018-09-03T13:34:00.000Z,98570
2018-09-03T13:39:00.000Z,98574
2018-09-03T13:44:00.000Z,98566
2018-09-03T13:49:00.000Z,98570
2018-09-03T13:54:00.000Z,98549
2018-09-03T13:59:00.000Z,98552
2018-09-03T14:04:00.000Z,98542
2018-09-03T14:09:00.000Z,98551
2018-09-03T14:14:00.000Z,98536
2018-09-03T14:19:00.000Z,98538
2018-09-03T14:24:00.000Z,98543
2018-09-03T14:29:00.000Z,98533
2018-09-03T14:34:00.000Z,98530
2018-09-03T14:39:00.000Z,98532
2018-09-03T14:44:00.000Z,98527
2018-09-03T14:49:00.000Z,98519
2018-09-03T14:54:00.000Z,98528
2018-09-03T14:59:00.000Z,98530
2018-09-03T15:04:00.000Z,98529
2018-09-03T15:09:00.000Z,98534
2018-09-03T15:14:00.000Z,98527
2018-09-03T15:19:00.000Z,98528
2018-09-03T15:24:00.000Z,98525
2018-09-03T15:29:00.000Z,98523
2018-09-03T15:35:00.000Z,98544
2018-09-03T15:40:00.000Z,98567
2018-09-03T15:45:00.000Z,98537
2018-09-03T15:50:00.000Z,98529
2018-09-03T15:55:00.000Z,98534
2018-09-03T16:00:00.000Z,98522
2018-09-03T16:05:00.000Z,98523
2018-09-03T16:10:00.000Z,98533
2018-09-03T16:15:00.000Z,98536
2018-09-03T16:20:00.000Z,98541
2018-09-03T16:25:00.000Z,98533
2018-09-03T16:30:00.000Z,98531
2018-09-03T16:35:00.000Z,98520
2018-09-03T16:40:00.000Z,98521
2018-09-03T16:45:00.000Z,98518
2018-09-03T16:50:00.000Z,98514
2018-09-03T16:55:00.000Z,98509
2018-09-03T17:00:00.000Z,98508
2018-09-03T17:05:00.000Z,98499
2018-09-03T17:10:00.000Z,98504
2018-09-03T17:15:00.000Z,98511
2018-09-03T17:20:00.000Z,98522
2018-09-03T17:25:00.000Z,98514
2018-09-03T17:30:00.000Z,98518
2018-09-03T17:35:00.000Z,98508
2018-09-03T17:40:00.000Z,98515
2018-09-03T17:45:00.000Z,98522
2018-09-03T17:50:00.000Z,98532
2018-09-03T17:55:00.000Z,98528
2018-09-03T18:00:00.000Z,98534
2018-09-03T18:05:00.000Z,98538
2018-09-03T18:10:00.000Z,98541
2018-09-03T18:15:00.000Z,98542
2018-09-03T18:20:00.000Z,98543
2018-09-03T18:25:00.000Z,98532
2018-09-03T18:30:00.000Z,98542
2018-09-03T18:35:00.000Z,98533
2018-09-03T18:40:00.000Z,98537
2018-09-03T18:45:00.000Z,98517
2018-09-03T18:50:00.000Z,98515
2018-09-03T18:55:00.000Z,98521
2018-09-03T19:00:00.000Z,98527
2018-09-03T19:05:00.000Z,98509
2018-09-03T19:10:00.000Z,98506
2018-09-03T19:15:00.000Z,98512
2018-09-03T19:20:00.000Z,98497
2018-09-03T19:25:00.000Z,98495
2018-09-03T19:30:00.000Z,98495
2018-09-03T19:35:00.000Z,98492
2018-09-03T19:40:00.000Z,98499
2018-09-03T19:45:00.000Z,98493
2018-09-03T19:50:00.000Z,98494
2018-09-03T19:55:00.000Z,98509
2018-09-03T20:00:00.000Z,98509
2018-09-03T20:05:00.000Z,98500
2018-09-03T20:10:00.000Z,98503
2018-09-03T20:15:00.000Z,98503
2018-09-03T20:20:00.000Z,98501
2018-09-03T20:25:00.000Z,98498
2018-09-03T20:30:00.000Z,98491
2018-09-03T20:35:00.000Z,98492
2018-09-03T20:40:00.000Z,98492
2018-09-03T20:45:00.000Z,98492
2018-09-03T20:50:00.000Z,98486
2018-09-03T20:55:00.000Z,98494
2018-09-03T21:00:00.000Z,98495
2018-09-03T21:05:00.000Z,98495
2018-09-03T21:10:00.000Z,98493
2018-09-03T21:15:00.000Z,98501
2018-09-03T21:20:00.000Z,98492
2018-09-03T21:25:00.000Z,98494
2018-09-03T21:30:00.000Z,98500
2018-09-03T21:35:00.000Z,98498
2018-09-03T21:40:00.000Z,98503
2018-09-03T21:45:00.000Z,98506
2018-09-03T21:51:00.000Z,98493
2018-09-03T21:56:00.000Z,98504
2018-09-03T22:01:00.000Z,98497
2018-09-03T22:06:00.000Z,98490
2018-09-03T22:11:00.000Z,98482
2018-09-03T22:16:00.000Z,98476
2018-09-03T22:21:00.000Z,98472
2018-09-03T22:26:00.000Z,98483
2018-09-03T22:31:00.000Z,98480
2018-09-03T22:36:00.000Z,98465
2018-09-03T22:41:00.000Z,98449
2018-09-03T22:46:00.000Z,98456
2018-09-03T22:51:00.000Z,98454
2018-09-03T22:56:00.000Z,98451
2018-09-03T23:01:00.000Z,98451
2018-09-03T23:06:00.000Z,98450
2018-09-03T23:11:00.000Z,98449
2018-09-03T23:16:00.000Z,98445
2018-09-03T23:21:00.000Z,98445
2018-09-03T23:26:00.000Z,98433
2018-09-03T23:31:00.000Z,98417
2018-09-03T23:36:00.000Z,98430
2018-09-03T23:41:00.000Z,98425
2018-09-03T23:46:00.000Z,98429
2018-09-03T23:51:00.000Z,98435
2018-09-03T23:56:00.000Z,98431
